Strona główna
METAR-TAF:

METAR-TAF

Lotnisko :

Port lotniczy Kerteh

Kerteh, Malezja

Szerokość geograficzna: 04-32-15N, Długość geograficzna: 103-25-36E, wysokość: 5 m

Aktualna obserwacja pogody

Raport powstał 1 godzina i 13 minut temu, godzina 16:00 UTC
Wiatr 1 kt z kierunków zmiennych
Temperatura 26°C
Wilgotność 94%
Ciśnienie 1009 hPa

METAR: WMKE 171600Z AUTO VRB01KT //// // ////// 26/25 Q1009

czas: 01:13 (17:13 UTC)

Prognoza

Raport powstał 6 godziny i 13 minut temu, godzina 11:00 UTC
Prognoza ważna od 17 godzina 12 UTC do 18 godzina 12 UTC
Wiatr 3 kt z kierunków zmiennych
Widzialność 10 km lub więcej
Mało chmury na wysokości 1500 ft
Stopniowe zmiany
od 18 godzina 00 UTC do 18 godzina 01 UTC
Wiatr 6 kt od wschodnio-południowy wschód
Mało chmury na wysokości 1400 ft
Przejściowo
od 18 godzina 06 UTC do 18 godzina 08 UTC
Widzialność: 7000 m
Mało chmury na wysokości 1400 ft, Cumulonimbus.
burza, słaby deszcz

TAF: WMKE 171100Z 1712/1812 VRB03KT 9999 FEW015 BECMG 1800/1801 11006KT FEW014 TEMPO 1806/1808 7000 -TSRA FEW014CB

Obserwacja i prognoza pogody dla ponad 4000 lotnisk (raport METAR i TAF).

Dostępne stacje oznaczono żółtymi i czerwonymi punktami na mapie.

Najedź kursorem aby zobaczyć nazwę stacji.

Kliknij aby zobaczyć obserwacje i prognozy pogody.

Aby zmienić mapę: kliknij na zielony przycisk z czarnym krzyżykiem, aby powiększyć; na zielony przycisk z myślnikiem, aby pomniejszyć; na zielone strzałki, aby przejść do map sąsiednich.


METAR-TAF: